Time;durP1;ratioP1;P1;durP2;ratioP2;P2;SDS_P1;SDS_P2;PMS_P1;PMS_P2;Temp;Humidity;BMP_temperature;BMP_pressure;BME280_temperature;BME280_humidity;BME280_pressure;Samples;Min_cycle;Max_cycle;Signal;HPM_P1;HPM_P2
2023/04/13 00:02:13;;;;;;;1.30;1.10;;;11.50;99.90;;;;;;5034044;28;20215;-84
2023/04/13 00:04:42;;;;;;;1.40;1.00;;;11.50;99.80;;;;;;5033882;28;20859;-84
2023/04/13 00:07:13;;;;;;;1.80;1.17;;;11.50;99.80;;;;;;5017139;28;20428;-83
2023/04/13 00:09:40;;;;;;;1.37;0.90;;;11.50;99.80;;;;;;5033438;28;20445;-84
2023/04/13 00:12:06;;;;;;;0.97;0.87;;;11.50;99.80;;;;;;5033718;28;20422;-85
2023/04/13 00:14:34;;;;;;;1.73;0.90;;;11.50;99.80;;;;;;5033347;28;20423;-84
2023/04/13 00:17:01;;;;;;;3.97;1.00;;;11.50;99.80;;;;;;5033564;28;20949;-84
2023/04/13 00:19:27;;;;;;;1.00;0.83;;;11.50;99.80;;;;;;5016752;28;20524;-84
2023/04/13 00:21:53;;;;;;;1.53;0.90;;;11.50;99.80;;;;;;5033580;28;20515;-82
2023/04/13 00:24:19;;;;;;;2.27;1.13;;;11.40;99.70;;;;;;5017889;28;20445;-83
2023/04/13 00:26:53;;;;;;;3.30;1.00;;;11.40;99.70;;;;;;5017139;28;20197;-84
2023/04/13 00:29:19;;;;;;;4.30;0.97;;;11.40;99.70;;;;;;5017017;28;20444;-83
2023/04/13 00:31:47;;;;;;;1.03;0.80;;;11.40;99.70;;;;;;5016840;28;20424;-84
2023/04/13 00:34:18;;;;;;;2.47;1.00;;;11.40;99.70;;;;;;5033925;28;20815;-85
2023/04/13 00:36:50;;;;;;;2.40;1.10;;;11.40;99.70;;;;;;5018356;28;20972;-91
2023/04/13 00:39:22;;;;;;;0.93;0.70;;;11.40;99.70;;;;;;5005834;28;20577;-93
2023/04/13 00:41:50;;;;;;;2.30;0.97;;;11.40;99.70;;;;;;4998994;28;20438;-90
2023/04/13 00:44:20;;;;;;;1.90;1.10;;;11.40;99.70;;;;;;5018199;28;20442;-93
2023/04/13 00:46:53;;;;;;;1.53;1.10;;;11.40;99.80;;;;;;5018436;28;20444;-93
2023/04/13 00:49:21;;;;;;;2.00;1.10;;;11.40;99.80;;;;;;5034653;28;20495;-91
2023/04/13 00:51:49;;;;;;;1.83;0.90;;;11.40;99.80;;;;;;5018127;28;20807;-92
2023/04/13 00:54:18;;;;;;;1.20;1.00;;;11.40;99.90;;;;;;5018031;28;20454;-92
2023/04/13 00:56:45;;;;;;;1.83;0.80;;;11.30;99.90;;;;;;5018197;28;20435;-89
2023/04/13 00:59:11;;;;;;;3.20;0.90;;;11.30;99.90;;;;;;4998205;28;20460;-90
2023/04/13 01:01:55;;;;;;;2.50;1.10;;;11.30;99.90;;;;;;4998275;28;20448;-89
2023/04/13 01:04:32;;;;;;;1.63;1.07;;;11.30;99.90;;;;;;4981876;28;20531;-90
2023/04/13 01:07:03;;;;;;;1.57;0.97;;;11.30;99.90;;;;;;4998096;28;20403;-90
2023/04/13 01:09:51;;;;;;;3.80;1.00;;;11.30;99.90;;;;;;4998094;28;20834;-89
2023/04/13 01:13:04;;;;;;;1.63;0.83;;;11.30;99.90;;;;;;4991084;28;20512;-90
2023/04/13 01:15:37;;;;;;;1.37;1.00;;;11.30;99.90;;;;;;4997159;28;20432;-90
2023/04/13 01:18:07;;;;;;;1.40;0.70;;;11.30;99.90;;;;;;5002013;28;20416;-90
2023/04/13 01:20:37;;;;;;;2.83;1.00;;;11.20;99.90;;;;;;5001537;28;20508;-90
2023/04/13 01:23:09;;;;;;;2.37;0.97;;;11.20;99.90;;;;;;5001397;28;20466;-90
2023/04/13 01:25:56;;;;;;;0.90;0.80;;;11.20;99.90;;;;;;4985361;28;20439;-90
2023/04/13 01:28:26;;;;;;;1.37;0.70;;;11.20;99.90;;;;;;5001952;28;20413;-90
2023/04/13 01:30:53;;;;;;;3.00;1.30;;;11.20;99.90;;;;;;5017568;28;20421;-90
2023/04/13 01:33:21;;;;;;;2.20;0.90;;;11.20;99.90;;;;;;5021109;28;20447;-89
2023/04/13 01:35:49;;;;;;;3.20;0.90;;;11.20;99.90;;;;;;5021323;28;20436;-89
2023/04/13 01:38:25;;;;;;;1.50;0.87;;;11.20;99.90;;;;;;5005223;28;20448;-90
2023/04/13 01:40:53;;;;;;;2.70;1.00;;;11.20;99.90;;;;;;5018293;28;20469;-90
2023/04/13 01:43:20;;;;;;;2.73;1.00;;;11.20;99.90;;;;;;5053833;28;20463;-89
2023/04/13 01:46:15;;;;;;;2.30;0.93;;;11.20;99.90;;;;;;5022243;28;20538;-90
2023/04/13 01:48:58;;;;;;;1.20;0.90;;;11.20;99.90;;;;;;5024331;28;20523;-90
2023/04/13 01:51:45;;;;;;;1.10;0.83;;;11.20;99.90;;;;;;5057322;28;20423;-90
2023/04/13 01:54:24;;;;;;;4.13;1.57;;;11.20;99.90;;;;;;5024294;28;20430;-90
2023/04/13 01:56:51;;;;;;;1.40;1.00;;;11.20;99.90;;;;;;5024205;28;20424;-90
2023/04/13 01:59:19;;;;;;;1.50;0.90;;;11.20;99.90;;;;;;5024096;28;20442;-89
2023/04/13 02:01:47;;;;;;;3.47;1.03;;;11.20;99.90;;;;;;5040656;28;20522;-91
2023/04/13 02:04:13;;;;;;;2.37;0.93;;;11.10;99.90;;;;;;5023954;28;20523;-89
2023/04/13 02:06:41;;;;;;;1.97;0.80;;;11.10;99.90;;;;;;5040103;28;20449;-90
2023/04/13 02:09:08;;;;;;;2.60;1.20;;;11.10;99.90;;;;;;5023909;28;20527;-90
2023/04/13 02:11:35;;;;;;;2.10;0.90;;;11.10;99.90;;;;;;5023809;28;20432;-91
2023/04/13 02:14:03;;;;;;;2.47;1.00;;;11.10;99.90;;;;;;5024207;28;20459;-89
2023/04/13 02:16:32;;;;;;;2.33;1.00;;;11.10;99.90;;;;;;5039907;28;20436;-89
2023/04/13 02:18:58;;;;;;;1.40;1.10;;;11.10;99.90;;;;;;5023690;28;20424;-90
2023/04/13 02:21:25;;;;;;;2.00;1.00;;;11.10;99.90;;;;;;5024195;28;20416;-90
2023/04/13 02:23:51;;;;;;;3.00;0.80;;;11.10;99.90;;;;;;5019823;28;20464;-92
2023/04/13 02:26:17;;;;;;;5.23;1.47;;;11.10;99.90;;;;;;5020051;28;20440;-90
2023/04/13 02:28:44;;;;;;;2.70;1.57;;;11.10;99.90;;;;;;5003828;28;20414;-91
2023/04/13 02:31:15;;;;;;;2.50;0.80;;;11.10;99.90;;;;;;5003875;28;20913;-90
2023/04/13 02:33:45;;;;;;;1.90;0.83;;;11.10;99.90;;;;;;5003384;28;20469;-89
2023/04/13 02:36:11;;;;;;;1.40;0.80;;;11.10;99.90;;;;;;5019982;28;20428;-90
2023/04/13 02:38:44;;;;;;;1.60;1.00;;;11.10;99.90;;;;;;5020074;28;20422;-90
2023/04/13 02:41:24;;;;;;;3.47;1.03;;;11.10;99.90;;;;;;4991340;28;20438;-90
2023/04/13 02:43:52;;;;;;;1.27;0.87;;;11.00;99.90;;;;;;4983092;28;20473;-89
2023/04/13 02:46:27;;;;;;;1.23;1.00;;;11.00;99.90;;;;;;4999954;28;20464;-90
2023/04/13 02:49:08;;;;;;;2.03;1.00;;;11.00;99.90;;;;;;4984058;28;20449;-90
2023/04/13 02:51:41;;;;;;;2.67;0.80;;;11.00;99.90;;;;;;5016516;28;20420;-90
2023/04/13 02:54:10;;;;;;;2.20;1.00;;;11.00;99.90;;;;;;4989100;28;20432;-90
2023/04/13 02:56:43;;;;;;;1.60;1.00;;;11.00;99.90;;;;;;5019870;28;20428;-90
2023/04/13 02:59:09;;;;;;;1.73;1.20;;;11.00;99.90;;;;;;5019409;28;20455;-90
2023/04/13 03:01:35;;;;;;;1.30;0.90;;;11.00;99.90;;;;;;5003315;28;20431;-91
2023/04/13 03:04:02;;;;;;;2.43;1.40;;;11.00;99.90;;;;;;5003148;28;20480;-90
2023/04/13 03:06:30;;;;;;;5.20;1.23;;;11.00;99.90;;;;;;4987044;28;20441;-91
2023/04/13 03:09:01;;;;;;;3.23;1.63;;;11.00;99.90;;;;;;5003934;28;20425;-90
2023/04/13 03:11:35;;;;;;;1.97;1.10;;;11.00;99.90;;;;;;5003882;28;20435;-90
2023/04/13 03:14:12;;;;;;;1.73;0.90;;;10.90;99.90;;;;;;5004359;28;20515;-89
2023/04/13 03:16:43;;;;;;;2.10;0.90;;;11.00;99.90;;;;;;5004030;28;20416;-90
2023/04/13 03:19:12;;;;;;;2.20;1.10;;;10.90;99.90;;;;;;5002882;28;20446;-90
2023/04/13 03:21:43;;;;;;;1.53;0.97;;;10.90;99.90;;;;;;5002966;28;20433;-90
2023/04/13 03:24:12;;;;;;;2.77;1.17;;;10.90;99.90;;;;;;5018383;28;20470;-90
2023/04/13 03:26:44;;;;;;;2.33;1.07;;;10.90;99.90;;;;;;5018945;28;20440;-91
2023/04/13 03:29:13;;;;;;;3.03;1.40;;;10.90;99.90;;;;;;5018860;28;20411;-90
2023/04/13 03:31:46;;;;;;;2.80;1.10;;;10.90;99.90;;;;;;5002791;28;20905;-91
2023/04/13 03:34:12;;;;;;;4.70;1.13;;;10.90;99.90;;;;;;5002889;28;20745;-90
2023/04/13 03:36:43;;;;;;;2.50;1.67;;;10.90;99.90;;;;;;5018884;28;20780;-91
2023/04/13 03:39:09;;;;;;;2.47;1.40;;;10.90;99.90;;;;;;5018771;28;20444;-90
2023/04/13 03:41:37;;;;;;;3.50;0.90;;;10.90;99.90;;;;;;5002716;28;20512;-90
2023/04/13 03:44:03;;;;;;;1.30;1.00;;;10.90;99.90;;;;;;5018895;28;20551;-88
2023/04/13 03:46:38;;;;;;;4.60;1.30;;;10.90;99.90;;;;;;5003318;28;20466;-93
2023/04/13 03:49:16;;;;;;;1.47;1.23;;;10.80;99.80;;;;;;5004271;28;20570;-92
2023/04/13 03:51:45;;;;;;;2.70;0.90;;;10.80;99.80;;;;;;5003043;28;20769;-93
2023/04/13 03:54:16;;;;;;;1.33;0.90;;;10.80;99.80;;;;;;5002711;28;20434;-93
2023/04/13 03:56:49;;;;;;;2.40;0.80;;;10.80;99.80;;;;;;5002115;28;20424;-92
2023/04/13 03:59:15;;;;;;;1.13;0.67;;;10.80;99.80;;;;;;5002363;28;20466;-91
2023/04/13 04:01:41;;;;;;;1.90;1.00;;;10.80;99.80;;;;;;5019072;28;20420;-91
2023/04/13 04:04:07;;;;;;;5.27;0.90;;;10.80;99.90;;;;;;5018406;28;20476;-91
2023/04/13 04:06:33;;;;;;;2.33;1.03;;;10.80;99.90;;;;;;5002559;28;20428;-90
2023/04/13 04:09:09;;;;;;;1.47;1.00;;;10.80;99.90;;;;;;4986205;28;20410;-93
2023/04/13 04:11:45;;;;;;;2.87;1.00;;;10.80;99.90;;;;;;4983972;28;20795;-90
2023/04/13 04:14:13;;;;;;;3.37;1.00;;;10.80;99.90;;;;;;4999057;28;20434;-91
2023/04/13 04:20:49;;;;;;;2.60;1.00;;;10.80;99.90;;;;;;5014961;28;20926;-92
2023/04/13 04:23:17;;;;;;;3.47;1.07;;;10.70;99.90;;;;;;5001898;28;20514;-91
2023/04/13 04:25:49;;;;;;;1.20;0.87;;;10.70;99.90;;;;;;5001150;28;20485;-92
2023/04/13 04:28:19;;;;;;;1.40;1.10;;;10.70;99.90;;;;;;4983187;28;20753;-93
2023/04/13 04:30:52;;;;;;;1.33;0.90;;;10.70;99.90;;;;;;4999155;28;20418;-92
2023/04/13 04:33:21;;;;;;;1.73;1.00;;;10.70;99.90;;;;;;4982985;28;20432;-92
2023/04/13 04:35:50;;;;;;;1.40;1.10;;;10.70;99.90;;;;;;4998700;28;20417;-91
2023/04/13 04:38:23;;;;;;;1.53;1.00;;;10.70;99.90;;;;;;4998989;28;20413;-90
2023/04/13 04:40:56;;;;;;;1.17;0.90;;;10.70;99.90;;;;;;5019718;28;20456;-90
2023/04/13 04:43:25;;;;;;;2.07;1.00;;;10.70;99.90;;;;;;5021218;28;20525;-90
2023/04/13 04:46:02;;;;;;;2.07;0.90;;;10.70;99.90;;;;;;5037982;28;20438;-90
2023/04/13 04:48:30;;;;;;;1.10;0.80;;;10.70;99.90;;;;;;5054357;28;20456;-91
2023/04/13 04:50:59;;;;;;;1.80;0.93;;;10.70;99.90;;;;;;5038029;28;20423;-91
2023/04/13 04:53:31;;;;;;;1.43;0.93;;;10.70;99.90;;;;;;5007488;28;20463;-91
2023/04/13 04:55:59;;;;;;;1.43;1.00;;;10.70;99.90;;;;;;5001910;28;20432;-92
2023/04/13 04:58:41;;;;;;;1.67;0.90;;;10.70;99.90;;;;;;5016328;28;20499;-92
2023/04/13 05:01:07;;;;;;;3.57;1.20;;;10.70;99.90;;;;;;5001818;28;20771;-91
2023/04/13 05:03:33;;;;;;;3.90;1.00;;;10.70;99.90;;;;;;5002131;28;20463;-91
2023/04/13 05:06:18;;;;;;;1.53;1.10;;;10.70;99.90;;;;;;5032678;28;20413;-92
2023/04/13 05:08:44;;;;;;;1.57;1.00;;;10.70;99.90;;;;;;5022036;28;20420;-92
2023/04/13 05:11:11;;;;;;;4.03;1.20;;;10.70;99.90;;;;;;5021678;28;20503;-93
2023/04/13 05:13:37;;;;;;;1.27;1.17;;;10.70;99.90;;;;;;5005289;28;20441;-93
2023/04/13 05:16:19;;;;;;;2.40;0.83;;;10.70;99.90;;;;;;5019444;28;20770;-92
2023/04/13 05:18:46;;;;;;;2.60;1.10;;;10.60;99.90;;;;;;5005783;28;20425;-92
2023/04/13 05:21:58;;;;;;;1.60;0.77;;;10.70;99.90;;;;;;5011390;28;20431;-91
2023/04/13 05:24:29;;;;;;;1.47;0.90;;;10.70;99.90;;;;;;5021200;28;20464;-91
2023/04/13 05:26:58;;;;;;;1.13;1.00;;;10.70;99.90;;;;;;5005912;28;20453;-92
2023/04/13 05:29:24;;;;;;;4.30;1.47;;;10.70;99.90;;;;;;5021620;28;20456;-91
2023/04/13 05:31:52;;;;;;;2.40;1.23;;;10.60;99.90;;;;;;5021057;28;20412;-92
2023/04/13 05:34:19;;;;;;;2.00;1.03;;;10.70;99.90;;;;;;5021189;28;20804;-91
2023/04/13 05:36:59;;;;;;;1.50;1.13;;;10.70;99.90;;;;;;5021688;28;20731;-91
2023/04/13 05:39:51;;;;;;;3.13;1.40;;;10.70;99.90;;;;;;5004610;28;20802;-91
2023/04/13 05:42:21;;;;;;;3.00;1.50;;;10.60;99.90;;;;;;5004617;28;20523;-92
2023/04/13 05:44:47;;;;;;;1.43;1.10;;;10.60;99.90;;;;;;5021010;28;20465;-93
2023/04/13 05:47:17;;;;;;;2.17;1.10;;;10.60;99.90;;;;;;5004699;28;22149;-91
2023/04/13 05:49:45;;;;;;;2.20;0.97;;;10.60;99.90;;;;;;5005003;28;20421;-92
2023/04/13 05:52:11;;;;;;;2.00;1.30;;;10.60;99.90;;;;;;5005350;28;20428;-92
2023/04/13 05:54:46;;;;;;;3.37;1.27;;;10.60;99.90;;;;;;5005940;28;20418;-94
2023/04/13 05:57:12;;;;;;;1.80;1.20;;;10.60;99.90;;;;;;5004882;28;20507;-93
2023/04/13 05:59:44;;;;;;;1.60;1.17;;;10.60;99.90;;;;;;5005146;28;20452;-89
2023/04/13 06:02:12;;;;;;;1.80;1.17;;;10.60;99.90;;;;;;5036928;28;20507;-92
2023/04/13 06:04:38;;;;;;;5.17;1.30;;;10.60;99.90;;;;;;5020935;28;20462;-89
2023/04/13 06:07:04;;;;;;;2.40;1.13;;;10.60;99.90;;;;;;5020479;28;20424;-90
2023/04/13 06:09:32;;;;;;;3.47;1.63;;;10.60;99.90;;;;;;5004083;28;20427;-93
2023/04/13 06:11:58;;;;;;;2.30;1.23;;;10.60;99.90;;;;;;5020714;28;20842;-91
2023/04/13 06:14:24;;;;;;;2.70;1.80;;;10.60;99.90;;;;;;5004449;28;20466;-92
2023/04/13 06:16:51;;;;;;;2.37;1.40;;;10.60;99.90;;;;;;5004503;28;20474;-92
2023/04/13 06:19:18;;;;;;;1.97;1.23;;;10.60;99.90;;;;;;4982943;28;20433;-90
2023/04/13 06:21:44;;;;;;;2.43;1.27;;;10.60;99.90;;;;;;5000102;28;20442;-91
2023/04/13 06:24:12;;;;;;;2.63;1.20;;;10.60;99.90;;;;;;5010590;28;20479;-91
2023/04/13 06:26:39;;;;;;;2.57;1.20;;;10.60;99.90;;;;;;4967814;28;20514;-92
2023/04/13 06:29:05;;;;;;;1.90;1.17;;;10.60;99.90;;;;;;4983790;28;20786;-91
2023/04/13 06:31:47;;;;;;;1.87;1.17;;;10.60;99.90;;;;;;4969469;28;20457;-91
2023/04/13 06:34:28;;;;;;;4.43;1.70;;;10.60;99.90;;;;;;4983000;28;20433;-92
2023/04/13 06:36:56;;;;;;;2.20;1.17;;;10.60;99.90;;;;;;4983704;28;20433;-91
2023/04/13 06:39:23;;;;;;;1.33;1.10;;;10.60;99.90;;;;;;4983789;28;20526;-91
2023/04/13 06:41:56;;;;;;;2.03;1.40;;;10.60;99.90;;;;;;4998062;28;20477;-88
2023/04/13 06:44:58;;;;;;;3.80;1.67;;;10.60;99.90;;;;;;4932879;29;20471;-90
2023/04/13 06:47:25;;;;;;;2.17;1.20;;;10.50;99.90;;;;;;4998273;28;20510;-87
2023/04/13 06:50:00;;;;;;;3.00;1.33;;;10.60;99.90;;;;;;5008623;28;20802;-88
2023/04/13 06:52:30;;;;;;;2.90;1.00;;;10.60;99.90;;;;;;5022717;28;20744;-89
2023/04/13 06:54:57;;;;;;;1.40;1.30;;;10.60;99.90;;;;;;5010623;28;20444;-86
2023/04/13 06:57:36;;;;;;;2.10;1.50;;;10.60;99.90;;;;;;5020610;28;20407;-87
2023/04/13 07:00:06;;;;;;;3.87;1.40;;;10.60;99.90;;;;;;5002534;28;20981;-88
2023/04/13 07:02:32;;;;;;;3.97;1.50;;;10.60;99.90;;;;;;5002570;28;20472;-88
2023/04/13 07:04:59;;;;;;;3.13;1.40;;;10.60;99.90;;;;;;5024406;28;20420;-92
2023/04/13 07:07:30;;;;;;;1.37;1.27;;;10.60;99.90;;;;;;5003644;28;20423;-94
2023/04/13 07:09:57;;;;;;;2.50;1.20;;;10.60;99.90;;;;;;5020041;28;20412;-92
2023/04/13 07:12:32;;;;;;;2.73;1.30;;;10.60;99.90;;;;;;5003390;28;20455;-90
2023/04/13 07:14:59;;;;;;;2.37;1.30;;;10.60;99.90;;;;;;4999461;28;20444;-91
2023/04/13 07:17:46;;;;;;;2.40;1.23;;;10.60;99.90;;;;;;4986834;28;22349;-89
2023/04/13 07:20:12;;;;;;;1.90;1.20;;;10.60;99.90;;;;;;5003315;28;20420;-92
2023/04/13 07:22:44;;;;;;;2.47;1.47;;;10.60;99.90;;;;;;5003007;28;20464;-93
2023/04/13 07:25:10;;;;;;;1.47;1.20;;;10.60;99.90;;;;;;5016415;28;20444;-91
2023/04/13 07:27:36;;;;;;;1.20;1.10;;;10.60;99.90;;;;;;5019215;28;20909;-89
2023/04/13 07:30:03;;;;;;;1.87;1.27;;;10.60;99.90;;;;;;5002219;28;20439;-88
2023/04/13 07:32:39;;;;;;;2.60;1.37;;;10.60;99.90;;;;;;5018926;28;20460;-85
2023/04/13 07:35:06;;;;;;;2.10;1.37;;;10.60;99.90;;;;;;5001889;28;20429;-86
2023/04/13 07:37:37;;;;;;;3.40;1.20;;;10.60;99.90;;;;;;5027449;28;20800;-86
2023/04/13 07:40:04;;;;;;;2.33;1.40;;;10.70;99.90;;;;;;5017927;28;20441;-86
2023/04/13 07:42:31;;;;;;;1.40;0.90;;;10.70;99.90;;;;;;5034390;28;20463;-87
2023/04/13 07:44:57;;;;;;;4.47;1.80;;;10.70;99.90;;;;;;5001542;28;20923;-88
2023/04/13 07:47:26;;;;;;;2.73;1.00;;;10.60;99.90;;;;;;5004949;28;20797;-86
2023/04/13 07:49:56;;;;;;;4.13;1.30;;;10.70;99.90;;;;;;5021204;28;20754;-86
2023/04/13 07:52:23;;;;;;;4.00;1.40;;;10.70;99.90;;;;;;5015237;28;20437;-89
2023/04/13 07:54:51;;;;;;;1.80;1.20;;;10.70;99.90;;;;;;5017831;28;20501;-86
2023/04/13 07:57:21;;;;;;;3.17;1.33;;;10.60;99.90;;;;;;5017941;28;20427;-87
2023/04/13 07:59:52;;;;;;;1.77;1.40;;;10.60;99.90;;;;;;5017859;28;20464;-88
2023/04/13 08:02:20;;;;;;;4.40;1.20;;;10.70;99.90;;;;;;5001878;28;20495;-88
2023/04/13 08:04:49;;;;;;;4.70;2.80;;;10.70;99.90;;;;;;5002044;28;20424;-88
2023/04/13 08:07:21;;;;;;;5.63;1.70;;;10.70;99.90;;;;;;5017510;28;20440;-87
2023/04/13 08:09:48;;;;;;;1.20;1.10;;;10.70;99.90;;;;;;5031144;28;20450;-88
2023/04/13 08:16:33;;;;;;;4.80;1.83;;;10.70;99.90;;;;;;5035253;28;20432;-89
2023/04/13 08:19:00;;;;;;;1.93;1.37;;;10.70;99.90;;;;;;5001382;28;20813;-87
2023/04/13 08:21:28;;;;;;;3.73;1.40;;;10.70;99.90;;;;;;5033838;28;20574;-86
2023/04/13 08:23:55;;;;;;;2.20;1.20;;;10.70;99.90;;;;;;5000943;28;20476;-85
2023/04/13 08:26:21;;;;;;;2.43;1.50;;;10.60;99.90;;;;;;5022387;28;20438;-88
2023/04/13 08:28:48;;;;;;;1.73;1.20;;;10.70;99.90;;;;;;5037752;28;20435;-88
2023/04/13 08:31:14;;;;;;;7.30;2.00;;;10.70;99.90;;;;;;5004702;28;20775;-88
2023/04/13 08:33:49;;;;;;;4.67;1.80;;;10.70;99.90;;;;;;5038473;28;20448;-89
2023/04/13 08:36:16;;;;;;;5.53;1.97;;;10.70;99.90;;;;;;5023887;28;20444;-88
2023/04/13 08:38:43;;;;;;;5.80;1.77;;;10.70;99.90;;;;;;5001494;28;20463;-86
2023/04/13 08:41:15;;;;;;;4.30;2.00;;;10.70;99.90;;;;;;5009022;28;20490;-87
2023/04/13 08:43:42;;;;;;;2.90;1.57;;;10.70;99.90;;;;;;5021623;28;20980;-88
2023/04/13 08:46:17;;;;;;;2.87;1.50;;;10.70;99.90;;;;;;5005878;28;20439;-88
2023/04/13 08:48:52;;;;;;;2.60;1.57;;;10.70;99.90;;;;;;5021070;28;20431;-86
2023/04/13 08:51:21;;;;;;;4.27;1.63;;;10.70;99.90;;;;;;5037419;28;20732;-87
2023/04/13 08:53:53;;;;;;;1.97;1.20;;;10.70;99.90;;;;;;5021135;28;20525;-86
2023/04/13 08:56:26;;;;;;;4.13;1.93;;;10.70;99.90;;;;;;5004869;28;20424;-87
2023/04/13 08:58:57;;;;;;;4.30;1.60;;;10.70;99.90;;;;;;5037595;28;20432;-88
2023/04/13 09:01:25;;;;;;;5.00;2.23;;;10.70;99.90;;;;;;5004818;28;20429;-87
2023/04/13 09:04:11;;;;;;;4.07;1.90;;;10.70;99.90;;;;;;5004449;28;20468;-87
2023/04/13 09:06:43;;;;;;;5.03;1.97;;;10.70;99.90;;;;;;5020307;28;20475;-86
2023/04/13 09:09:15;;;;;;;4.17;1.83;;;10.70;99.90;;;;;;5004733;28;20415;-87
2023/04/13 09:11:44;;;;;;;4.47;2.00;;;10.70;99.90;;;;;;5004468;28;20428;-86
2023/04/13 09:14:11;;;;;;;4.53;1.90;;;10.70;99.90;;;;;;5005360;28;20964;-93
2023/04/13 09:16:41;;;;;;;4.03;1.97;;;10.70;99.90;;;;;;5005788;28;20574;-90
2023/04/13 09:19:13;;;;;;;3.00;2.03;;;10.70;99.90;;;;;;5021907;28;20460;-92
2023/04/13 09:21:42;;;;;;;4.73;2.60;;;10.70;99.90;;;;;;5038317;28;20419;-91
2023/04/13 09:24:09;;;;;;;4.60;2.10;;;10.70;99.90;;;;;;5021181;28;20475;-90
2023/04/13 09:26:42;;;;;;;3.10;1.90;;;10.80;99.90;;;;;;5020718;28;20519;-88
2023/04/13 09:29:27;;;;;;;5.00;2.13;;;10.80;99.90;;;;;;5020816;28;20454;-89
2023/04/13 09:31:54;;;;;;;5.57;2.00;;;10.80;99.90;;;;;;5004987;28;20609;-91
2023/04/13 09:34:30;;;;;;;6.53;1.90;;;10.80;99.90;;;;;;5004699;28;20459;-90
2023/04/13 09:36:56;;;;;;;4.07;2.00;;;10.80;99.90;;;;;;5005081;28;20439;-88
2023/04/13 09:39:26;;;;;;;4.50;1.90;;;10.80;99.90;;;;;;5020456;28;20463;-89
2023/04/13 09:41:53;;;;;;;5.63;2.00;;;10.80;99.90;;;;;;5000728;28;20440;-89
2023/04/13 09:44:23;;;;;;;3.87;1.80;;;10.90;99.90;;;;;;5017037;28;20528;-88
2023/04/13 09:46:59;;;;;;;7.00;2.23;;;10.90;99.90;;;;;;5000578;28;20446;-89
2023/04/13 09:49:35;;;;;;;5.87;1.93;;;10.90;99.90;;;;;;5000977;28;20853;-89
2023/04/13 09:52:01;;;;;;;7.43;2.70;;;10.90;99.90;;;;;;5033850;28;20769;-89
2023/04/13 09:54:27;;;;;;;3.30;1.73;;;10.90;99.90;;;;;;5001012;28;20445;-90
2023/04/13 09:56:56;;;;;;;8.60;2.70;;;10.90;99.90;;;;;;4985089;28;20427;-90
2023/04/13 09:59:27;;;;;;;5.33;2.00;;;10.90;99.90;;;;;;5017113;28;20522;-89
2023/04/13 10:01:53;;;;;;;4.30;2.27;;;10.90;99.90;;;;;;5000265;28;20903;-91
2023/04/13 10:04:19;;;;;;;5.53;2.07;;;10.90;99.90;;;;;;5000348;28;20521;-88
2023/04/13 10:06:46;;;;;;;9.40;2.70;;;10.90;99.90;;;;;;5001319;28;20444;-90
2023/04/13 10:09:13;;;;;;;5.83;2.90;;;10.90;99.90;;;;;;5004032;28;20424;-93
2023/04/13 10:11:50;;;;;;;5.90;2.50;;;10.90;99.90;;;;;;5004792;28;20436;-92
2023/04/13 10:14:23;;;;;;;4.60;2.40;;;11.00;99.90;;;;;;5020772;28;20423;-90
2023/04/13 10:16:58;;;;;;;13.07;3.07;;;11.00;99.90;;;;;;5001052;28;20475;-93
2023/04/13 10:19:29;;;;;;;7.37;2.37;;;11.00;99.90;;;;;;5017469;28;20487;-91
2023/04/13 10:21:56;;;;;;;5.60;2.23;;;11.00;99.90;;;;;;5002873;28;20512;-91
2023/04/13 10:24:23;;;;;;;9.67;3.00;;;11.00;99.90;;;;;;5020104;28;20571;-93
2023/04/13 10:26:59;;;;;;;7.87;2.43;;;11.00;99.90;;;;;;5004435;28;20569;-94
2023/04/13 10:29:31;;;;;;;4.83;2.50;;;11.00;99.90;;;;;;5020628;28;20873;-94
2023/04/13 10:32:03;;;;;;;5.77;2.43;;;11.00;99.90;;;;;;5003906;28;20441;-91
2023/04/13 10:34:34;;;;;;;7.53;2.73;;;11.00;99.90;;;;;;5020235;28;20492;-89
2023/04/13 10:37:05;;;;;;;6.90;2.50;;;11.00;99.90;;;;;;5020026;28;20899;-89
2023/04/13 10:39:34;;;;;;;4.83;2.17;;;11.00;99.90;;;;;;5003950;28;20880;-90
2023/04/13 10:42:06;;;;;;;8.00;2.67;;;11.00;99.90;;;;;;5003109;28;20454;-88
2023/04/13 10:44:41;;;;;;;6.80;2.57;;;11.00;99.90;;;;;;5003131;28;20500;-89
2023/04/13 10:47:08;;;;;;;5.37;2.23;;;11.00;99.90;;;;;;5003299;28;20431;-89
2023/04/13 10:49:35;;;;;;;7.00;2.70;;;11.10;99.90;;;;;;5019168;28;20449;-90
2023/04/13 10:52:01;;;;;;;6.83;2.43;;;11.10;99.90;;;;;;5004123;28;20741;-91
2023/04/13 10:54:30;;;;;;;2.83;2.20;;;11.10;99.90;;;;;;5003814;28;20452;-92
2023/04/13 10:56:57;;;;;;;5.17;2.60;;;11.10;99.90;;;;;;5003195;28;20977;-88
2023/04/13 10:59:48;;;;;;;6.30;2.27;;;11.20;99.90;;;;;;5019073;28;20460;-89
2023/04/13 11:02:17;;;;;;;4.10;2.30;;;11.20;99.90;;;;;;5002513;28;20456;-88
2023/04/13 11:04:47;;;;;;;4.80;2.13;;;11.20;99.90;;;;;;5018439;28;21152;-87
2023/04/13 11:07:15;;;;;;;7.93;2.20;;;11.20;99.90;;;;;;5003076;28;20459;-88
2023/04/13 11:09:49;;;;;;;8.37;2.60;;;11.20;99.90;;;;;;5002836;28;20426;-88
2023/04/13 11:12:16;;;;;;;4.77;2.37;;;11.20;99.90;;;;;;5002853;28;20451;-89
2023/04/13 11:14:47;;;;;;;6.90;2.53;;;11.20;99.90;;;;;;5019635;28;20438;-92
2023/04/13 11:17:19;;;;;;;4.93;2.03;;;11.20;99.90;;;;;;5002928;28;20939;-90
2023/04/13 11:19:50;;;;;;;7.70;3.20;;;11.20;99.80;;;;;;5019213;28;20458;-89
2023/04/13 11:22:17;;;;;;;5.90;2.63;;;11.30;99.80;;;;;;5022845;28;20455;-91
2023/04/13 11:24:44;;;;;;;6.10;2.40;;;11.30;99.80;;;;;;5022510;28;20558;-89
2023/04/13 11:27:17;;;;;;;6.23;2.63;;;11.30;99.80;;;;;;5022943;28;20763;-93
2023/04/13 11:30:04;;;;;;;7.20;2.10;;;11.30;99.80;;;;;;5022475;28;20461;-89
2023/04/13 11:32:33;;;;;;;6.33;2.23;;;11.30;99.70;;;;;;5018587;28;20493;-91
2023/04/13 11:35:07;;;;;;;6.70;2.70;;;11.40;99.70;;;;;;5001999;28;20454;-89
2023/04/13 11:37:44;;;;;;;5.83;2.77;;;11.30;99.60;;;;;;5018535;28;20412;-87
2023/04/13 11:40:20;;;;;;;6.77;2.20;;;11.40;99.60;;;;;;5019044;28;20542;-88
2023/04/13 11:42:48;;;;;;;10.83;2.90;;;11.40;99.60;;;;;;5019583;28;20464;-89
2023/04/13 11:45:16;;;;;;;4.63;2.10;;;11.30;99.50;;;;;;5054714;28;20441;-88
2023/04/13 11:47:43;;;;;;;3.43;2.07;;;11.40;99.60;;;;;;5055094;28;20420;-87
2023/04/13 11:50:09;;;;;;;4.17;2.07;;;11.40;99.50;;;;;;5021109;28;20430;-88
2023/04/13 11:52:37;;;;;;;7.67;2.37;;;11.40;99.40;;;;;;5021888;28;20584;-91
2023/04/13 11:55:05;;;;;;;3.67;1.97;;;11.50;99.40;;;;;;5038179;28;20961;-89
2023/04/13 11:57:34;;;;;;;5.63;2.10;;;11.40;99.20;;;;;;5054271;28;20931;-90
2023/04/13 12:00:00;;;;;;;4.23;2.07;;;11.50;99.10;;;;;;5034966;28;20763;-88
2023/04/13 12:02:29;;;;;;;5.53;2.07;;;11.50;98.90;;;;;;5001686;28;20515;-88
2023/04/13 12:04:56;;;;;;;4.93;2.40;;;11.50;98.70;;;;;;5034786;28;20436;-88
2023/04/13 12:07:23;;;;;;;6.03;2.30;;;11.50;98.60;;;;;;4985790;28;20439;-88
2023/04/13 12:09:50;;;;;;;9.53;2.13;;;11.50;98.40;;;;;;5001537;28;20497;-88
2023/04/13 12:12:20;;;;;;;4.63;1.87;;;11.60;98.50;;;;;;5001399;28;20537;-86
2023/04/13 12:14:56;;;;;;;4.27;2.10;;;11.60;98.40;;;;;;5001214;28;20499;-87
2023/04/13 12:17:29;;;;;;;8.67;2.20;;;11.60;98.40;;;;;;5017253;28;20440;-89
2023/04/13 12:19:55;;;;;;;7.60;2.10;;;11.60;98.30;;;;;;5001769;28;20477;-88
2023/04/13 12:22:22;;;;;;;5.97;2.20;;;11.70;98.20;;;;;;5034221;28;20763;-88
2023/04/13 12:24:48;;;;;;;3.50;1.53;;;11.70;98.00;;;;;;4998095;28;20416;-87
2023/04/13 12:27:17;;;;;;;7.07;2.10;;;11.70;97.90;;;;;;4998170;28;20461;-88
2023/04/13 12:29:43;;;;;;;2.70;1.60;;;11.70;97.90;;;;;;5014639;28;20574;-91
2023/04/13 12:32:12;;;;;;;9.43;2.23;;;11.80;97.70;;;;;;4998956;28;20480;-93
2023/04/13 12:34:46;;;;;;;6.03;1.97;;;11.80;97.50;;;;;;4983225;28;20430;-93
2023/04/13 12:37:17;;;;;;;4.43;2.13;;;11.80;97.50;;;;;;4982646;28;20516;-92
2023/04/13 12:39:43;;;;;;;9.07;1.90;;;11.80;97.50;;;;;;4998017;28;20770;-88
2023/04/13 12:42:09;;;;;;;5.60;2.10;;;11.80;97.50;;;;;;5012822;28;20435;-88
2023/04/13 12:44:35;;;;;;;7.00;2.07;;;11.80;97.70;;;;;;5012851;28;20225;-88
2023/04/13 12:47:01;;;;;;;5.80;2.20;;;11.90;97.70;;;;;;5017536;28;20450;-88
2023/04/13 12:49:27;;;;;;;7.27;2.20;;;11.90;97.60;;;;;;5017042;28;20158;-87
2023/04/13 12:51:55;;;;;;;6.60;3.50;;;11.90;97.60;;;;;;5001832;28;20424;-88
2023/04/13 12:54:21;;;;;;;5.80;3.33;;;11.90;97.70;;;;;;5033565;28;20423;-86
2023/04/13 12:56:47;;;;;;;5.57;2.13;;;11.90;97.60;;;;;;5000842;28;20541;-89
2023/04/13 12:59:13;;;;;;;6.13;2.60;;;12.00;97.70;;;;;;5001039;28;20185;-87
2023/04/13 13:02:08;;;;;;;6.50;2.20;;;12.00;97.60;;;;;;5017279;28;20212;-89
2023/04/13 13:04:34;;;;;;;13.30;2.60;;;12.00;97.40;;;;;;5000858;28;20463;-85
2023/04/13 13:07:00;;;;;;;4.33;1.77;;;12.00;97.30;;;;;;5013729;28;20508;-89
2023/04/13 13:09:26;;;;;;;7.10;2.30;;;12.00;97.20;;;;;;4997803;28;20438;-87
2023/04/13 13:11:55;;;;;;;4.20;2.00;;;12.00;97.20;;;;;;4997757;28;20755;-88